createdAt,value
2017-07-09T00:00:45.673Z,1010.3
2017-07-09T00:01:47.303Z,1010.3
2017-07-09T00:02:48.935Z,1010.3
2017-07-09T00:03:50.570Z,1010.2
2017-07-09T00:04:52.197Z,1010.2
2017-07-09T00:05:53.834Z,1010.2
2017-07-09T00:06:55.476Z,1010.2
2017-07-09T00:07:57.108Z,1010.2
2017-07-09T00:08:58.740Z,1010.2
2017-07-09T00:10:00.376Z,1010.2
2017-07-09T00:11:02.012Z,1010.1
2017-07-09T00:12:03.639Z,1010.2
2017-07-09T00:13:05.276Z,1010.1
2017-07-09T00:14:06.908Z,1010.1
2017-07-09T00:15:08.543Z,1010.1
2017-07-09T00:16:10.174Z,1010.1
2017-07-09T00:17:11.806Z,1010.1
2017-07-09T00:18:13.442Z,1010.1
2017-07-09T00:19:15.071Z,1010.1
2017-07-09T00:20:16.706Z,1010.1
2017-07-09T00:21:18.342Z,1010.1
2017-07-09T00:22:19.974Z,1010.0
2017-07-09T00:23:21.606Z,1010.0
2017-07-09T00:24:23.240Z,1010.0
2017-07-09T00:25:24.874Z,1010.0
2017-07-09T00:26:26.501Z,1009.9
2017-07-09T00:27:28.135Z,1009.9
2017-07-09T00:28:29.766Z,1009.9
2017-07-09T00:29:31.399Z,1009.9
2017-07-09T00:30:33.029Z,1009.9
2017-07-09T00:31:34.659Z,1009.9
2017-07-09T00:32:36.291Z,1009.9
2017-07-09T00:33:37.922Z,1009.9
2017-07-09T00:34:39.558Z,1009.9
2017-07-09T00:35:41.190Z,1009.9
2017-07-09T00:36:42.826Z,1009.9
2017-07-09T00:37:44.455Z,1009.9
2017-07-09T00:38:46.088Z,1009.9
2017-07-09T00:39:47.721Z,1010.0
2017-07-09T00:40:49.355Z,1010.0
2017-07-09T00:41:50.991Z,1010.0
2017-07-09T00:42:52.620Z,1010.0
2017-07-09T00:43:54.250Z,1010.0
2017-07-09T00:44:55.884Z,1010.0
2017-07-09T00:45:57.516Z,1010.0
2017-07-09T00:46:59.147Z,1010.0
2017-07-09T00:48:00.781Z,1009.9
2017-07-09T00:49:02.409Z,1009.9
2017-07-09T00:50:04.072Z,1009.9
2017-07-09T00:51:05.705Z,1009.8
2017-07-09T00:52:07.340Z,1009.7
2017-07-09T00:53:08.984Z,1009.7
2017-07-09T00:54:10.615Z,1009.7
2017-07-09T00:55:12.244Z,1009.7
2017-07-09T00:56:13.879Z,1009.7
2017-07-09T00:57:15.512Z,1009.8
2017-07-09T00:58:17.145Z,1009.8
2017-07-09T00:59:18.784Z,1009.8
2017-07-09T01:00:20.422Z,1009.9
2017-07-09T01:01:22.059Z,1009.9
2017-07-09T01:02:23.692Z,1009.9
2017-07-09T01:03:25.326Z,1009.9
2017-07-09T01:04:26.960Z,1009.9
2017-07-09T01:05:28.595Z,1010.0
2017-07-09T01:06:30.227Z,1009.9
2017-07-09T01:07:31.860Z,1009.9
2017-07-09T01:08:33.490Z,1009.9
2017-07-09T01:09:35.120Z,1009.9
2017-07-09T01:10:36.752Z,1009.8
2017-07-09T01:11:38.383Z,1009.8
2017-07-09T01:12:40.025Z,1009.9
2017-07-09T01:13:41.653Z,1009.9
2017-07-09T01:14:43.285Z,1009.8
2017-07-09T01:15:44.922Z,1009.9
2017-07-09T01:16:46.546Z,1009.9
2017-07-09T01:17:48.184Z,1009.9
2017-07-09T01:18:49.822Z,1009.8
2017-07-09T01:19:51.457Z,1009.8
2017-07-09T01:20:53.088Z,1009.9
2017-07-09T01:21:54.719Z,1009.9
2017-07-09T01:22:56.348Z,1009.9
2017-07-09T01:23:57.990Z,1009.9
2017-07-09T01:24:59.663Z,1009.9
2017-07-09T01:26:01.298Z,1009.9
2017-07-09T01:27:02.932Z,1009.9
2017-07-09T01:28:04.568Z,1009.9
2017-07-09T01:29:06.190Z,1009.9
2017-07-09T01:30:07.822Z,1009.9
2017-07-09T01:31:09.455Z,1009.9
2017-07-09T01:32:11.087Z,1009.9
2017-07-09T01:33:12.721Z,1009.9
2017-07-09T01:34:14.357Z,1009.9
2017-07-09T01:35:15.986Z,1009.9
2017-07-09T01:36:17.615Z,1009.9
2017-07-09T01:37:19.248Z,1009.9
2017-07-09T01:38:20.879Z,1009.9
2017-07-09T01:39:22.513Z,1009.8
2017-07-09T01:40:24.145Z,1009.8
2017-07-09T01:41:25.793Z,1009.8
2017-07-09T01:42:27.420Z,1009.8
2017-07-09T01:43:29.104Z,1009.7
2017-07-09T01:44:30.683Z,1009.7
2017-07-09T01:45:32.316Z,1009.7
2017-07-09T01:46:33.949Z,1009.7
2017-07-09T01:47:35.582Z,1009.8
2017-07-09T01:48:37.212Z,1009.8
2017-07-09T01:49:38.841Z,1009.9
2017-07-09T01:50:40.476Z,1009.9
2017-07-09T01:51:42.101Z,1009.9
2017-07-09T01:52:43.731Z,1009.9
2017-07-09T01:53:45.363Z,1009.9
2017-07-09T01:54:46.997Z,1009.9
2017-07-09T01:55:48.628Z,1010.0
2017-07-09T01:56:50.259Z,1010.0
2017-07-09T01:57:51.888Z,1010.0
2017-07-09T01:58:53.517Z,1010.1
2017-07-09T01:59:55.145Z,1010.0
2017-07-09T02:00:56.774Z,1010.0
2017-07-09T02:01:58.406Z,1010.1
2017-07-09T02:03:00.039Z,1010.0
2017-07-09T02:04:01.667Z,1010.0
2017-07-09T02:05:03.327Z,1010.0
2017-07-09T02:06:04.927Z,1010.0
2017-07-09T02:07:06.556Z,1010.0
2017-07-09T02:08:08.186Z,1010.0
2017-07-09T02:09:09.818Z,1009.9
2017-07-09T02:10:11.446Z,1010.0
2017-07-09T02:11:13.077Z,1009.9
2017-07-09T02:12:14.705Z,1009.9
2017-07-09T02:13:16.336Z,1009.9
2017-07-09T02:14:17.965Z,1010.0
2017-07-09T02:15:19.599Z,1010.0
2017-07-09T02:16:21.229Z,1010.0
2017-07-09T02:17:22.861Z,1010.1
2017-07-09T02:18:24.489Z,1010.0
2017-07-09T02:19:26.117Z,1010.0
2017-07-09T02:20:27.749Z,1010.0
2017-07-09T02:21:29.381Z,1010.0
2017-07-09T02:22:31.010Z,1010.0
2017-07-09T02:23:32.638Z,1010.0
2017-07-09T02:24:34.270Z,1010.0
2017-07-09T02:25:35.899Z,1010.1
2017-07-09T02:26:37.529Z,1010.0
2017-07-09T02:27:39.157Z,1010.0
2017-07-09T02:28:40.786Z,1010.0
2017-07-09T02:29:42.423Z,1010.0
2017-07-09T02:30:44.052Z,1010.0
2017-07-09T02:31:45.686Z,1010.0
2017-07-09T02:32:47.316Z,1010.0
2017-07-09T02:33:48.947Z,1010.0
2017-07-09T02:34:50.578Z,1010.0
2017-07-09T02:35:52.207Z,1010.0
2017-07-09T02:36:53.840Z,1010.1
2017-07-09T02:37:55.461Z,1010.1
2017-07-09T02:38:57.110Z,1010.0
2017-07-09T02:39:58.739Z,1010.1
2017-07-09T02:41:00.368Z,1010.1
2017-07-09T02:42:01.996Z,1010.1
2017-07-09T02:43:03.628Z,1010.1
2017-07-09T02:44:05.261Z,1010.1
2017-07-09T02:45:06.945Z,1010.1
2017-07-09T02:46:08.521Z,1010.1
2017-07-09T02:47:10.150Z,1010.1
2017-07-09T02:48:11.779Z,1010.1
2017-07-09T02:49:13.410Z,1010.1
2017-07-09T02:50:15.039Z,1010.1
2017-07-09T02:51:16.669Z,1010.1
2017-07-09T02:52:18.298Z,1010.1
2017-07-09T02:53:19.932Z,1010.0
2017-07-09T02:54:21.559Z,1010.1
2017-07-09T02:55:23.190Z,1010.1
2017-07-09T02:56:24.818Z,1010.1
2017-07-09T02:57:26.457Z,1010.0
2017-07-09T02:58:28.087Z,1010.0
2017-07-09T02:59:29.720Z,1010.0
2017-07-09T03:00:31.348Z,1009.9
2017-07-09T03:01:32.978Z,1010.0
2017-07-09T03:02:34.608Z,1009.9
2017-07-09T03:03:36.239Z,1009.9
2017-07-09T03:04:37.867Z,1009.9
2017-07-09T03:05:39.498Z,1009.9
2017-07-09T03:06:41.125Z,1009.9
2017-07-09T03:07:42.755Z,1009.9
2017-07-09T03:08:44.387Z,1009.9
2017-07-09T03:09:46.017Z,1009.9
2017-07-09T03:10:47.647Z,1009.9
2017-07-09T03:11:49.276Z,1009.9
2017-07-09T03:12:50.909Z,1009.9
2017-07-09T03:13:52.540Z,1009.9
2017-07-09T03:14:54.174Z,1009.9
2017-07-09T03:15:55.813Z,1009.9
2017-07-09T03:16:57.442Z,1009.9
2017-07-09T03:17:59.072Z,1009.9
2017-07-09T03:19:00.702Z,1010.0
2017-07-09T03:20:02.338Z,1010.0
2017-07-09T03:21:03.967Z,1009.9
2017-07-09T03:22:05.596Z,1009.9
2017-07-09T03:23:07.224Z,1009.9
2017-07-09T03:24:08.877Z,1009.9
2017-07-09T03:25:10.509Z,1009.9
2017-07-09T03:26:12.144Z,1009.9
2017-07-09T03:27:13.776Z,1009.9
2017-07-09T03:28:15.407Z,1009.9
2017-07-09T03:29:17.042Z,1009.9
2017-07-09T03:30:18.678Z,1009.8
2017-07-09T03:31:20.304Z,1009.8
2017-07-09T03:32:21.929Z,1009.8
2017-07-09T03:33:23.560Z,1009.8
2017-07-09T03:34:25.206Z,1009.8
2017-07-09T03:35:26.835Z,1009.7
2017-07-09T03:36:28.465Z,1009.7
2017-07-09T03:37:30.097Z,1009.7
2017-07-09T03:38:31.733Z,1009.7
2017-07-09T03:39:33.360Z,1009.7
2017-07-09T03:40:34.986Z,1009.8
2017-07-09T03:41:36.617Z,1009.8
2017-07-09T03:42:38.251Z,1009.8
2017-07-09T03:43:39.882Z,1009.9
2017-07-09T03:44:41.512Z,1009.9
2017-07-09T03:45:43.142Z,1009.8
2017-07-09T03:46:44.769Z,1009.8
2017-07-09T03:47:46.401Z,1009.9
2017-07-09T03:48:48.032Z,1009.9
2017-07-09T03:49:49.664Z,1009.8
2017-07-09T03:50:51.296Z,1009.8
2017-07-09T03:51:52.921Z,1009.8
2017-07-09T03:52:54.555Z,1009.8
2017-07-09T03:53:56.186Z,1009.8
2017-07-09T03:54:57.815Z,1009.8
2017-07-09T03:55:59.451Z,1009.9
2017-07-09T03:57:01.075Z,1009.9
2017-07-09T03:58:02.708Z,1009.9
2017-07-09T03:59:04.337Z,1009.9
2017-07-09T04:00:06.001Z,1009.9
2017-07-09T04:01:07.641Z,1009.9
2017-07-09T04:02:09.268Z,1009.9
2017-07-09T04:03:10.905Z,1009.8
2017-07-09T04:04:12.535Z,1009.9
2017-07-09T04:05:14.168Z,1009.9
2017-07-09T04:06:15.796Z,1009.9
2017-07-09T04:07:17.426Z,1009.9
2017-07-09T04:08:19.057Z,1010.0
2017-07-09T04:09:20.684Z,1009.9
2017-07-09T04:10:22.316Z,1009.9
2017-07-09T04:11:23.944Z,1009.9
2017-07-09T04:12:25.604Z,1009.9
2017-07-09T04:13:27.234Z,1009.9
2017-07-09T04:14:28.883Z,1009.8
2017-07-09T04:15:30.512Z,1009.8
2017-07-09T04:16:32.143Z,1009.8
2017-07-09T04:17:33.771Z,1009.8
2017-07-09T04:18:35.403Z,1009.8
2017-07-09T04:19:37.093Z,1009.8
2017-07-09T04:20:38.718Z,1009.8
2017-07-09T04:21:40.378Z,1009.8
2017-07-09T04:22:42.008Z,1009.8
2017-07-09T04:23:43.636Z,1009.8
2017-07-09T04:24:45.276Z,1009.9
2017-07-09T04:25:46.902Z,1009.9
2017-07-09T04:26:48.537Z,1009.9
2017-07-09T04:27:50.177Z,1009.9
2017-07-09T04:28:51.807Z,1009.9
2017-07-09T04:29:53.437Z,1009.9
2017-07-09T04:30:55.068Z,1009.9
2017-07-09T04:31:56.710Z,1009.9
2017-07-09T04:32:58.343Z,1009.9
2017-07-09T04:33:59.979Z,1009.9
2017-07-09T04:35:01.598Z,1009.9
2017-07-09T04:36:03.239Z,1009.9
2017-07-09T04:37:04.871Z,1009.9
2017-07-09T04:38:06.501Z,1009.9
2017-07-09T04:39:08.137Z,1009.9
2017-07-09T04:40:09.765Z,1009.9
2017-07-09T04:41:11.435Z,1009.9
2017-07-09T04:42:13.076Z,1009.9
2017-07-09T04:43:14.705Z,1009.8
2017-07-09T04:44:16.337Z,1009.9
2017-07-09T04:45:17.965Z,1009.9
2017-07-09T04:46:19.603Z,1009.9
2017-07-09T04:47:21.234Z,1009.9
2017-07-09T04:48:22.881Z,1009.9
2017-07-09T04:49:24.513Z,1009.9
2017-07-09T04:50:26.141Z,1009.9
2017-07-09T04:51:27.769Z,1009.9
2017-07-09T04:52:29.399Z,1009.8
2017-07-09T04:53:31.044Z,1009.8
2017-07-09T04:54:32.678Z,1009.8
2017-07-09T04:55:34.310Z,1009.8
2017-07-09T04:56:35.991Z,1009.8
2017-07-09T04:57:37.571Z,1009.8
2017-07-09T04:58:39.202Z,1009.8
2017-07-09T04:59:40.833Z,1009.8
2017-07-09T05:00:42.467Z,1009.8
2017-07-09T05:01:44.095Z,1009.8
2017-07-09T05:02:45.727Z,1009.8
2017-07-09T05:03:47.374Z,1009.8
2017-07-09T05:04:49.006Z,1009.8
2017-07-09T05:05:50.636Z,1009.8
2017-07-09T05:06:52.267Z,1009.7
2017-07-09T05:07:53.901Z,1009.7
2017-07-09T05:08:55.532Z,1009.7
2017-07-09T05:09:57.165Z,1009.7
2017-07-09T05:10:58.794Z,1009.7
2017-07-09T05:12:00.423Z,1009.7
2017-07-09T05:13:02.050Z,1009.7
2017-07-09T05:14:03.685Z,1009.7
2017-07-09T05:15:05.321Z,1009.7
2017-07-09T05:16:06.954Z,1009.7
2017-07-09T05:17:08.593Z,1009.7
2017-07-09T05:18:10.220Z,1009.7
2017-07-09T05:19:11.849Z,1009.7
2017-07-09T05:20:13.477Z,1009.6
2017-07-09T05:21:15.111Z,1009.7
2017-07-09T05:22:16.741Z,1009.7
2017-07-09T05:23:18.375Z,1009.6
2017-07-09T05:24:20.006Z,1009.7
2017-07-09T05:25:21.666Z,1009.7
2017-07-09T05:26:23.312Z,1009.7
2017-07-09T05:27:24.937Z,1009.7
2017-07-09T05:28:26.575Z,1009.7
2017-07-09T05:29:28.206Z,1009.7
2017-07-09T05:30:29.837Z,1009.6
2017-07-09T05:31:31.469Z,1009.6
2017-07-09T05:32:33.099Z,1009.6
2017-07-09T05:33:34.729Z,1009.6
2017-07-09T05:34:36.361Z,1009.6
2017-07-09T05:35:37.992Z,1009.6
2017-07-09T05:36:39.628Z,1009.6
2017-07-09T05:37:41.261Z,1009.5
2017-07-09T05:38:42.894Z,1009.5
2017-07-09T05:39:44.531Z,1009.5
2017-07-09T05:40:46.160Z,1009.5
2017-07-09T05:41:47.792Z,1009.5
2017-07-09T05:42:49.421Z,1009.5
2017-07-09T05:43:51.051Z,1009.4
2017-07-09T05:44:52.683Z,1009.5
2017-07-09T05:45:54.317Z,1009.5
2017-07-09T05:46:55.965Z,1009.4
2017-07-09T05:47:57.582Z,1009.4
2017-07-09T05:48:59.419Z,1009.5
2017-07-09T05:50:01.050Z,1009.4
2017-07-09T05:51:02.734Z,1009.5
2017-07-09T05:52:04.363Z,1009.5
2017-07-09T05:53:06.082Z,1009.5
2017-07-09T05:54:07.713Z,1009.5
2017-07-09T05:55:09.347Z,1009.5
2017-07-09T05:56:10.985Z,1009.5
2017-07-09T05:57:12.617Z,1009.6
2017-07-09T05:58:14.325Z,1009.5
2017-07-09T05:59:15.952Z,1009.5
2017-07-09T06:00:17.585Z,1009.6
2017-07-09T06:01:19.217Z,1009.6
2017-07-09T06:02:20.847Z,1009.5
2017-07-09T06:03:22.486Z,1009.6
2017-07-09T06:04:24.129Z,1009.6
2017-07-09T06:05:25.757Z,1009.6
2017-07-09T06:06:27.389Z,1009.6
2017-07-09T06:07:29.022Z,1009.6
2017-07-09T06:08:30.836Z,1009.6
2017-07-09T06:09:32.478Z,1009.6
2017-07-09T06:10:34.117Z,1009.6
2017-07-09T06:11:36.137Z,1009.6
2017-07-09T06:12:37.773Z,1009.6
2017-07-09T06:13:39.450Z,1009.6
2017-07-09T06:14:41.121Z,1009.6
2017-07-09T06:15:42.761Z,1009.6
2017-07-09T06:16:44.846Z,1009.6
2017-07-09T06:17:46.478Z,1009.6
2017-07-09T06:18:48.508Z,1009.7
2017-07-09T06:19:50.248Z,1009.7
2017-07-09T06:20:51.881Z,1009.7
2017-07-09T06:21:53.597Z,1009.7
2017-07-09T06:22:55.989Z,1009.6
2017-07-09T06:23:57.621Z,1009.7
2017-07-09T06:24:59.254Z,1009.7
2017-07-09T06:26:00.884Z,1009.7
2017-07-09T06:27:02.530Z,1009.7
2017-07-09T06:28:04.161Z,1009.7
2017-07-09T06:29:05.794Z,1009.7
2017-07-09T06:30:08.734Z,1009.7
2017-07-09T06:31:10.380Z,1009.7
2017-07-09T06:32:12.062Z,1009.7
2017-07-09T06:33:13.710Z,1009.7
2017-07-09T06:34:17.202Z,1009.7
2017-07-09T06:35:18.834Z,1009.6
2017-07-09T06:36:20.470Z,1009.7
2017-07-09T06:37:22.105Z,1009.7
2017-07-09T06:38:24.082Z,1009.6
2017-07-09T06:39:27.035Z,1009.7
2017-07-09T06:40:28.001Z,1009.7
2017-07-09T06:41:29.635Z,1009.6
2017-07-09T06:42:31.286Z,1009.7
2017-07-09T06:43:32.920Z,1009.6
2017-07-09T06:44:34.637Z,1009.6
2017-07-09T06:45:36.793Z,1009.6
2017-07-09T06:46:38.417Z,1009.6
2017-07-09T06:47:40.104Z,1009.6
2017-07-09T06:48:41.827Z,1009.6
2017-07-09T06:49:43.481Z,1009.6
2017-07-09T06:50:45.122Z,1009.6
2017-07-09T06:51:46.755Z,1009.6
2017-07-09T06:52:48.439Z,1009.6
2017-07-09T06:53:50.513Z,1009.7
2017-07-09T06:54:52.162Z,1009.6
2017-07-09T06:55:53.794Z,1009.6
2017-07-09T06:56:55.461Z,1009.6
2017-07-09T06:57:57.099Z,1009.6
2017-07-09T06:58:58.735Z,1009.7
2017-07-09T07:00:00.366Z,1009.6
2017-07-09T07:01:02.074Z,1009.6
2017-07-09T07:02:03.709Z,1009.6
2017-07-09T07:03:05.359Z,1009.6
2017-07-09T07:04:07.036Z,1009.6
2017-07-09T07:05:08.681Z,1009.6
2017-07-09T07:06:10.313Z,1009.6
2017-07-09T07:07:11.983Z,1009.6
2017-07-09T07:08:13.622Z,1009.6
2017-07-09T07:09:15.283Z,1009.6
2017-07-09T07:10:16.934Z,1009.5
2017-07-09T07:11:18.592Z,1009.6
2017-07-09T07:12:20.307Z,1009.5
2017-07-09T07:13:21.953Z,1009.5
2017-07-09T07:14:23.611Z,1009.5
2017-07-09T07:15:25.252Z,1009.5
2017-07-09T07:16:26.893Z,1009.5
2017-07-09T07:17:28.529Z,1009.5
2017-07-09T07:18:30.171Z,1009.5
2017-07-09T07:19:32.163Z,1009.5
2017-07-09T07:20:34.106Z,1009.5
2017-07-09T07:21:35.954Z,1009.5
2017-07-09T07:22:37.884Z,1009.5
2017-07-09T07:23:39.830Z,1009.4
2017-07-09T07:24:41.729Z,1009.4
2017-07-09T07:25:43.649Z,1009.4
2017-07-09T07:26:45.551Z,1009.4
2017-07-09T07:27:47.532Z,1009.4
2017-07-09T07:28:49.448Z,1009.4
2017-07-09T07:29:51.371Z,1009.4
2017-07-09T07:30:53.334Z,1009.5
2017-07-09T07:31:55.250Z,1009.4
2017-07-09T07:32:57.143Z,1009.5
2017-07-09T07:33:59.046Z,1009.4
2017-07-09T07:35:00.932Z,1009.5
2017-07-09T07:36:02.897Z,1009.4
2017-07-09T07:37:05.412Z,1009.5
2017-07-09T07:38:07.287Z,1009.5
2017-07-09T07:39:09.157Z,1009.5
2017-07-09T07:40:11.041Z,1009.5
2017-07-09T07:41:12.921Z,1009.5
2017-07-09T07:42:16.967Z,1009.4
2017-07-09T07:43:18.901Z,1009.4
2017-07-09T07:44:20.815Z,1009.4
2017-07-09T07:45:22.726Z,1009.4
2017-07-09T07:46:24.630Z,1009.4
2017-07-09T07:47:26.584Z,1009.4
2017-07-09T07:48:28.473Z,1009.4
2017-07-09T07:49:30.363Z,1009.4
2017-07-09T07:50:32.001Z,1009.4
2017-07-09T07:51:33.674Z,1009.4
2017-07-09T07:52:35.309Z,1009.4
2017-07-09T07:53:36.941Z,1009.4
2017-07-09T07:54:38.574Z,1009.3
2017-07-09T07:55:40.208Z,1009.3
2017-07-09T07:56:41.839Z,1009.3
2017-07-09T07:57:43.962Z,1009.3
2017-07-09T07:58:45.649Z,1009.3
2017-07-09T07:59:47.279Z,1009.3
2017-07-09T08:00:49.907Z,1009.3
2017-07-09T08:01:51.598Z,1009.3
2017-07-09T08:02:53.234Z,1009.3
2017-07-09T08:03:54.973Z,1009.3
2017-07-09T08:04:56.600Z,1009.3
2017-07-09T08:05:58.238Z,1009.3
2017-07-09T08:06:59.873Z,1009.3
2017-07-09T08:08:01.563Z,1009.3
2017-07-09T08:09:03.194Z,1009.3
2017-07-09T08:10:04.829Z,1009.3
2017-07-09T08:11:06.461Z,1009.4
2017-07-09T08:12:08.090Z,1009.4
2017-07-09T08:13:09.728Z,1009.4
2017-07-09T08:14:11.356Z,1009.4
2017-07-09T08:15:12.990Z,1009.4
2017-07-09T08:16:14.627Z,1009.3
2017-07-09T08:17:16.256Z,1009.3
2017-07-09T08:18:17.889Z,1009.3
2017-07-09T08:19:19.527Z,1009.3
2017-07-09T08:20:21.156Z,1009.3
2017-07-09T08:21:22.788Z,1009.3
2017-07-09T08:22:24.430Z,1009.3
2017-07-09T08:23:26.063Z,1009.3
2017-07-09T08:24:27.752Z,1009.3
2017-07-09T08:25:29.396Z,1009.4
2017-07-09T08:26:31.020Z,1009.3
2017-07-09T08:27:32.654Z,1009.3
2017-07-09T08:28:34.285Z,1009.3
2017-07-09T08:29:35.915Z,1009.4
2017-07-09T08:30:37.561Z,1009.3
2017-07-09T08:31:39.196Z,1009.3
2017-07-09T08:32:40.830Z,1009.3
2017-07-09T08:33:42.463Z,1009.3
2017-07-09T08:34:44.100Z,1009.3
2017-07-09T08:35:45.733Z,1009.3
2017-07-09T08:36:47.367Z,1009.3
2017-07-09T08:37:49.011Z,1009.3
2017-07-09T08:38:50.645Z,1009.3
2017-07-09T08:39:52.294Z,1009.3
2017-07-09T08:40:53.924Z,1009.3
2017-07-09T08:41:55.583Z,1009.3
2017-07-09T08:42:57.227Z,1009.2
2017-07-09T08:43:58.862Z,1009.2
2017-07-09T08:45:00.494Z,1009.2
2017-07-09T08:46:02.131Z,1009.2
2017-07-09T08:47:03.762Z,1009.2
2017-07-09T08:48:05.403Z,1009.2
2017-07-09T08:49:07.043Z,1009.1
2017-07-09T08:50:08.677Z,1009.2
2017-07-09T08:51:10.767Z,1009.1
2017-07-09T08:52:12.416Z,1009.1
2017-07-09T08:53:14.067Z,1009.2
2017-07-09T08:54:15.701Z,1009.1
2017-07-09T08:55:17.332Z,1009.1
2017-07-09T08:56:19.422Z,1009.1
2017-07-09T08:57:21.177Z,1009.1
2017-07-09T08:58:22.813Z,1009.1
2017-07-09T08:59:24.506Z,1009.2
2017-07-09T09:00:26.135Z,1009.1
2017-07-09T09:01:27.774Z,1009.1
2017-07-09T09:02:29.413Z,1009.1
2017-07-09T09:03:31.334Z,1009.1
2017-07-09T09:04:33.219Z,1009.1
2017-07-09T09:05:34.873Z,1009.1
2017-07-09T09:06:36.507Z,1009.0
2017-07-09T09:07:38.651Z,1009.0
2017-07-09T09:08:46.216Z,1009.1
2017-07-09T09:09:49.496Z,1009.0
2017-07-09T09:10:53.015Z,1009.0
2017-07-09T09:11:55.833Z,1009.1
2017-07-09T09:12:58.041Z,1009.0
2017-07-09T09:14:01.160Z,1009.0
2017-07-09T09:15:05.163Z,1009.0
2017-07-09T09:16:07.306Z,1009.0
2017-07-09T09:17:12.496Z,1009.0
2017-07-09T09:18:15.000Z,1009.0
2017-07-09T09:19:17.146Z,1009.0
2017-07-09T09:20:19.744Z,1009.0
2017-07-09T09:21:23.257Z,1009.0
2017-07-09T09:22:27.810Z,1009.0
2017-07-09T09:23:30.175Z,1009.0
2017-07-09T09:24:32.146Z,1009.0
2017-07-09T09:25:34.346Z,1009.0
2017-07-09T09:26:36.405Z,1009.0
2017-07-09T09:27:38.021Z,1009.0
2017-07-09T09:28:40.374Z,1009.0
2017-07-09T09:29:42.592Z,1009.0
2017-07-09T09:30:44.658Z,1009.0
2017-07-09T09:31:46.701Z,1009.0
2017-07-09T09:32:48.805Z,1009.0
2017-07-09T09:33:52.256Z,1009.0
2017-07-09T09:36:10.493Z,1009.0
2017-07-09T09:37:12.560Z,1008.9
2017-07-09T09:38:14.635Z,1008.9
2017-07-09T09:39:19.338Z,1008.9
2017-07-09T09:40:20.951Z,1008.9
2017-07-09T09:41:23.051Z,1008.8
2017-07-09T09:42:25.139Z,1008.8
2017-07-09T09:43:33.253Z,1008.8
2017-07-09T09:44:38.709Z,1008.8
2017-07-09T09:45:39.965Z,1008.9
2017-07-09T09:46:45.351Z,1008.9
2017-07-09T09:47:47.505Z,1008.9
2017-07-09T09:48:49.125Z,1008.9
2017-07-09T09:49:50.758Z,1008.9
2017-07-09T09:50:52.415Z,1008.8
2017-07-09T09:51:54.125Z,1008.8
2017-07-09T09:52:55.747Z,1008.8
2017-07-09T09:53:57.582Z,1008.8
2017-07-09T09:54:59.869Z,1008.8
2017-07-09T09:56:01.495Z,1008.8
2017-07-09T09:57:03.456Z,1008.8
2017-07-09T09:58:05.113Z,1008.8
2017-07-09T09:59:06.748Z,1008.8
2017-07-09T10:00:08.391Z,1008.8
2017-07-09T10:01:10.020Z,1008.8
2017-07-09T10:02:11.663Z,1008.8
2017-07-09T10:03:13.380Z,1008.8
2017-07-09T10:04:15.145Z,1008.8
2017-07-09T10:05:16.791Z,1008.7
2017-07-09T10:06:18.432Z,1008.8
2017-07-09T10:07:20.068Z,1008.8
2017-07-09T10:08:21.706Z,1008.8
2017-07-09T10:09:23.331Z,1008.8
2017-07-09T10:10:25.016Z,1008.7
2017-07-09T10:11:26.703Z,1008.7
2017-07-09T10:12:28.343Z,1008.7
2017-07-09T10:13:29.991Z,1008.7
2017-07-09T10:14:31.626Z,1008.7
2017-07-09T10:15:33.257Z,1008.7
2017-07-09T10:16:34.917Z,1008.7
2017-07-09T10:17:36.551Z,1008.7
2017-07-09T10:18:38.191Z,1008.7
2017-07-09T10:19:39.863Z,1008.7
2017-07-09T10:20:42.172Z,1008.7
2017-07-09T10:21:43.805Z,1008.7
2017-07-09T10:22:45.433Z,1008.7
2017-07-09T10:23:47.075Z,1008.7
2017-07-09T10:24:48.714Z,1008.7
2017-07-09T10:25:50.349Z,1008.7
2017-07-09T10:26:51.988Z,1008.7
2017-07-09T10:27:53.651Z,1008.6
2017-07-09T10:28:55.280Z,1008.6
2017-07-09T10:29:56.913Z,1008.7
2017-07-09T10:30:58.545Z,1008.7
2017-07-09T10:32:00.180Z,1008.6
2017-07-09T10:33:01.815Z,1008.6
2017-07-09T10:34:03.448Z,1008.7
2017-07-09T10:35:05.192Z,1008.7
2017-07-09T10:36:06.823Z,1008.6
2017-07-09T10:37:08.454Z,1008.6
2017-07-09T10:38:10.100Z,1008.7
2017-07-09T10:39:11.747Z,1008.6
2017-07-09T10:40:13.379Z,1008.6
2017-07-09T10:41:15.024Z,1008.6
2017-07-09T10:42:16.660Z,1008.6
2017-07-09T10:43:18.299Z,1008.6
2017-07-09T10:44:19.927Z,1008.6
2017-07-09T10:45:21.582Z,1008.6
2017-07-09T10:46:23.215Z,1008.6
2017-07-09T10:47:24.849Z,1008.6
2017-07-09T10:48:26.530Z,1008.6
2017-07-09T10:49:28.172Z,1008.6
2017-07-09T10:50:29.816Z,1008.6
2017-07-09T10:51:31.449Z,1008.6
2017-07-09T10:52:33.081Z,1008.6
2017-07-09T10:53:34.715Z,1008.6
2017-07-09T10:54:36.386Z,1008.6
2017-07-09T10:55:38.020Z,1008.6
2017-07-09T10:56:39.665Z,1008.6
2017-07-09T10:57:41.295Z,1008.5
2017-07-09T10:58:42.931Z,1008.5
2017-07-09T10:59:44.561Z,1008.6
2017-07-09T11:00:46.195Z,1008.6
2017-07-09T11:01:47.833Z,1008.6
2017-07-09T11:02:49.470Z,1008.6
2017-07-09T11:03:51.110Z,1008.6
2017-07-09T11:04:52.744Z,1008.5
2017-07-09T11:05:54.377Z,1008.6
2017-07-09T11:06:56.010Z,1008.5
2017-07-09T11:07:57.647Z,1008.5
2017-07-09T11:08:59.283Z,1008.5
2017-07-09T11:10:00.974Z,1008.5
2017-07-09T11:11:02.608Z,1008.5
2017-07-09T11:12:04.241Z,1008.5
2017-07-09T11:13:05.879Z,1008.5
2017-07-09T11:14:07.514Z,1008.5
2017-07-09T11:15:09.144Z,1008.5
2017-07-09T11:16:10.777Z,1008.5
2017-07-09T11:17:12.411Z,1008.5
2017-07-09T11:18:14.048Z,1008.5
2017-07-09T11:19:15.677Z,1008.5
2017-07-09T11:20:17.311Z,1008.6
2017-07-09T11:21:18.944Z,1008.5
2017-07-09T11:22:20.578Z,1008.5
2017-07-09T11:23:22.212Z,1008.5
2017-07-09T11:24:23.848Z,1008.6
2017-07-09T11:25:25.483Z,1008.5
2017-07-09T11:26:27.117Z,1008.5
2017-07-09T11:27:28.751Z,1008.5
2017-07-09T11:28:30.386Z,1008.5
2017-07-09T11:29:32.030Z,1008.5
2017-07-09T11:30:33.661Z,1008.5
2017-07-09T11:31:35.295Z,1008.5
2017-07-09T11:32:36.942Z,1008.5
2017-07-09T11:33:38.615Z,1008.5
2017-07-09T11:34:40.250Z,1008.5
2017-07-09T11:35:41.885Z,1008.4
2017-07-09T11:36:43.517Z,1008.4
2017-07-09T11:37:45.151Z,1008.4
2017-07-09T11:38:46.788Z,1008.4
2017-07-09T11:39:48.423Z,1008.4
2017-07-09T11:40:50.055Z,1008.4
2017-07-09T11:41:51.690Z,1008.4
2017-07-09T11:42:53.359Z,1008.4
2017-07-09T11:43:54.993Z,1008.4
2017-07-09T11:44:56.631Z,1008.4
2017-07-09T11:45:58.263Z,1008.4
2017-07-09T11:46:59.915Z,1008.4
2017-07-09T11:48:01.546Z,1008.4
2017-07-09T11:49:03.178Z,1008.4
2017-07-09T11:50:04.811Z,1008.4
2017-07-09T11:51:06.448Z,1008.4
2017-07-09T11:52:08.077Z,1008.4
2017-07-09T11:53:09.710Z,1008.4
2017-07-09T11:54:11.346Z,1008.4
2017-07-09T11:55:12.975Z,1008.4
2017-07-09T11:56:14.609Z,1008.3
2017-07-09T11:57:16.241Z,1008.4
2017-07-09T11:58:17.875Z,1008.4
2017-07-09T11:59:19.509Z,1008.4
2017-07-09T12:00:21.145Z,1008.4
2017-07-09T12:01:22.778Z,1008.4
2017-07-09T12:02:24.419Z,1008.3
2017-07-09T12:03:26.045Z,1008.4
2017-07-09T12:04:27.680Z,1008.3
2017-07-09T12:05:29.312Z,1008.4
2017-07-09T12:06:30.953Z,1008.4
2017-07-09T12:07:32.588Z,1008.4
2017-07-09T12:08:34.219Z,1008.3
2017-07-09T12:09:35.855Z,1008.3
2017-07-09T12:10:37.486Z,1008.3
2017-07-09T12:11:39.167Z,1008.3
2017-07-09T12:12:40.799Z,1008.3
2017-07-09T12:13:42.438Z,1008.3
2017-07-09T12:14:44.075Z,1008.3
2017-07-09T12:15:45.709Z,1008.2
2017-07-09T12:16:47.341Z,1008.3
2017-07-09T12:17:48.974Z,1008.2
2017-07-09T12:18:50.607Z,1008.2
2017-07-09T12:19:52.238Z,1008.2
2017-07-09T12:20:53.873Z,1008.2
2017-07-09T12:21:55.508Z,1008.2
2017-07-09T12:22:57.142Z,1008.2
2017-07-09T12:23:58.776Z,1008.2
2017-07-09T12:25:00.407Z,1008.2
2017-07-09T12:26:02.041Z,1008.1
2017-07-09T12:27:03.674Z,1008.1
2017-07-09T12:28:05.306Z,1008.1
2017-07-09T12:29:06.942Z,1008.1
2017-07-09T12:30:08.580Z,1008.1
2017-07-09T12:31:10.214Z,1008.1
2017-07-09T12:32:11.844Z,1008.1
2017-07-09T12:33:13.476Z,1008.1
2017-07-09T12:34:15.118Z,1008.1
2017-07-09T12:35:17.495Z,1008.1
2017-07-09T12:36:19.237Z,1008.1
2017-07-09T12:37:20.881Z,1008.1
2017-07-09T12:38:22.544Z,1008.1
2017-07-09T12:39:24.272Z,1008.0
2017-07-09T12:40:25.905Z,1008.0
2017-07-09T12:41:27.578Z,1008.1
2017-07-09T12:42:29.265Z,1008.1
2017-07-09T12:43:31.079Z,1008.0
2017-07-09T12:44:32.740Z,1008.0
2017-07-09T12:45:37.795Z,1008.0
2017-07-09T12:46:39.495Z,1008.0
2017-07-09T12:47:41.152Z,1008.0
2017-07-09T12:48:42.808Z,1008.0
2017-07-09T12:49:44.441Z,1008.0
2017-07-09T12:50:47.611Z,1008.0
2017-07-09T12:51:49.274Z,1008.0